Royal, Iowa
Current Conditions -  °F | °C
As of 8:53 AM on Friday 31 Oct 2014 (Local Time) from KSPW Reporting Station
Clear Clear  
Wind Chill: 14°   Ceiling: Unl
Heat Index: 25°   Visibility: 10mi
Dew Point: 19°   Wind: 12mph
Humidity: 78%   Direction: 360°N
Pressure: 30.55"   Gusts: NA
Location:  43.07°N, 95.28°W
Report Text: KSPW 311353Z AUTO 36010KT 10SM CLR M04/M07 A3055 RMK AO2 SLP360 T10391072 TSNO
Loading
Personal Weather Stations






























Interactive Weather Map
Tropical Storm Tracking
New forecast layout! Learn more

10-Day Weather Forecast

Advertisements
Track Severe Weather on mobile